Airfield :
LOGIN :

Register | Disclaimer

   EN    FR    IT 

 










Legend :    VFR   Marginal VFR   IFR   Intensive IFR   Very Intensive IFR
Visi :
Ceiling :
>= 8 km
>= 3000ft
5 to 8 km
1000 to 3000 ft
1500m to 5 km
500 to 1000 ft
800 to 1500m
200 to 500 ft
< 800m
< 200 ft
Symbols :   Thunderstorms  Fog  Heavy snow  Heavy precipitations  Wind > 20 kt
SIGMETs :     Misc.  Thunderstorms  Icing  Turbulence  Mountain Waves  Volcanic Ashes






- Airport Elevation : 584 ft


LFPV - Villacoublay Vélizy

CURRENT METAR :
  • 161230Z AUTO 25013KT 210V280 9999 SCT043 BKN049 BKN058 21/11 Q1015 TEMPO 25015G25KT SCT030TCU

EXPIRED METARs :
  • 161200Z AUTO 25011KT 220V280 9999 BKN040 BKN052 OVC240 21/13 Q1015 TEMPO 25015G25KT SCT030TCU
  • 161130Z AUTO 23013KT 190V260 9999 BKN040 BKN048 BKN240 20/11 Q1015 TEMPO 25015G25KT SCT030TCU
  • 161100Z AUTO 24014KT 200V280 9999 FEW030 SCT035 BKN041 20/11 Q1015 TEMPO 25015G25KT SCT030TCU
  • 161030Z AUTO 24011KT 210V280 9999 SCT026 BKN031 BKN044 20/13 Q1014 TEMPO 25015G25KT SCT030TCU
  • 161000Z AUTO 24013KT 210V280 9999 BKN028 BKN036 OVC240 18/12 Q1014 TEMPO 25015G25KT SCT030TCU
  • 160930Z AUTO 25014KT 220V280 9999 SCT026 BKN035 BKN056 18/12 Q1014 TEMPO 25015G25KT SCT030TCU
  • 160900Z AUTO 24011KT 9999 BKN020 BKN027 BKN044 17/13 Q1014 TEMPO 25015G25KT SCT030TCU
  • 160830Z AUTO 23011KT 190V260 9999 -DZ BKN017 BKN025 BKN034 16/14 Q1014 TEMPO 25015G25KT SCT030TCU
  • 160800Z AUTO 23011KT 170V260 9999 BKN017/// BKN023/// OVC050/// ///TCU 17/13 Q1013 TEMPO 25015G25KT BKN020

TAF TAF LFPV
Valid from the 16 at 09:00 until the 17 at 09:00 UTC


160800Z 1609/1709 23010KT 9999 BKN020 TX23/1615Z TN14/1704Z
TEMPO 1609/1618 25015G25KT
PROB30
TEMPO 1609/1617 -SHRA SCT030TCU



MET'MAP, your aeronautical weather chart ! - Copyright ORBIFLY December 2007 - Disclaimer

ORBIFLY MET'MAP TEAM :

Programming & Development : Alexandra Zaïnal
Original concept : Baudouin d'Aumeries
Technical & hardware support : Manuel Goepfert
Assistance : Marc-Olivier Méhu




SOURCES & CREDITS :

   NOAA